createdAt,value
2023-02-17T00:01:13.295Z,0.00
2023-02-17T00:03:39.916Z,0.00
2023-02-17T00:06:08.167Z,0.00
2023-02-17T00:08:34.700Z,0.00
2023-02-17T00:11:01.189Z,0.00
2023-02-17T00:13:27.694Z,0.00
2023-02-17T00:15:54.136Z,0.00
2023-02-17T00:18:20.588Z,0.00
2023-02-17T00:20:47.117Z,0.16
2023-02-17T00:23:13.473Z,2.87
2023-02-17T00:25:40.024Z,6.86
2023-02-17T00:28:06.467Z,13.57
2023-02-17T00:30:32.862Z,15.46
2023-02-17T00:32:59.552Z,17.97
2023-02-17T00:35:25.945Z,20.18
2023-02-17T00:37:52.302Z,22.11
2023-02-17T00:40:18.822Z,21.10
2023-02-17T00:42:45.356Z,20.58
2023-02-17T00:45:11.709Z,19.28
2023-02-17T00:47:38.093Z,18.71
2023-02-17T00:50:05.774Z,18.25
2023-02-17T00:52:32.130Z,18.42
2023-02-17T00:54:58.483Z,18.20
2023-02-17T00:57:26.436Z,16.99
2023-02-17T00:59:52.818Z,15.63
2023-02-17T01:02:19.146Z,15.20
2023-02-17T01:04:45.567Z,15.18
2023-02-17T01:07:12.224Z,13.76
2023-02-17T01:09:38.581Z,11.15
2023-02-17T01:12:05.305Z,7.04
2023-02-17T01:14:31.667Z,5.00
2023-02-17T01:16:58.205Z,4.34
2023-02-17T01:19:24.613Z,4.00
2023-02-17T01:21:51.018Z,3.02
2023-02-17T01:24:17.434Z,3.31
2023-02-17T01:26:43.796Z,2.71
2023-02-17T01:29:10.281Z,1.75
2023-02-17T01:31:36.749Z,1.94
2023-02-17T01:34:03.800Z,1.01
2023-02-17T01:36:30.281Z,0.20
2023-02-17T01:38:56.674Z,0.00
2023-02-17T01:41:26.781Z,0.00
2023-02-17T01:44:05.564Z,0.00
2023-02-17T01:46:33.206Z,0.00
2023-02-17T01:48:59.587Z,0.00
2023-02-17T01:51:28.026Z,0.00
2023-02-17T01:53:55.916Z,0.00
2023-02-17T01:56:22.274Z,0.00
2023-02-17T01:59:00.874Z,0.00
2023-02-17T02:01:27.354Z,0.19
2023-02-17T02:03:53.696Z,0.58
2023-02-17T02:06:22.187Z,1.68
2023-02-17T02:08:48.515Z,2.61
2023-02-17T02:11:15.038Z,4.31
2023-02-17T02:13:41.434Z,4.81
2023-02-17T02:16:54.704Z,6.23
2023-02-17T02:19:39.845Z,8.19
2023-02-17T02:22:20.757Z,11.72
2023-02-17T02:24:51.388Z,17.91
2023-02-17T02:27:35.570Z,22.98
2023-02-17T02:30:46.504Z,25.86
2023-02-17T02:33:33.995Z,29.94
2023-02-17T02:36:05.551Z,32.73
2023-02-17T02:38:40.861Z,35.70
2023-02-17T02:41:14.058Z,38.13
2023-02-17T02:43:40.397Z,40.66
2023-02-17T02:46:07.019Z,44.06
2023-02-17T02:48:33.592Z,47.03
2023-02-17T02:51:58.654Z,50.34
2023-02-17T02:54:28.383Z,53.74
2023-02-17T02:57:00.414Z,57.44
2023-02-17T02:59:47.654Z,61.14
2023-02-17T03:02:22.308Z,65.15
2023-02-17T03:04:51.587Z,69.22
2023-02-17T03:07:21.512Z,72.92
2023-02-17T03:09:49.628Z,75.92
2023-02-17T03:12:16.121Z,79.33
2023-02-17T03:14:42.663Z,83.19
2023-02-17T03:17:09.170Z,86.58
2023-02-17T03:19:35.586Z,89.86
2023-02-17T03:22:26.086Z,92.01
2023-02-17T03:24:52.565Z,96.49
2023-02-17T03:27:18.909Z,100.00
2023-02-17T03:29:45.346Z,100.00
2023-02-17T03:32:11.816Z,100.00
2023-02-17T03:34:39.379Z,100.00
2023-02-17T03:37:05.726Z,100.00
2023-02-17T03:39:32.332Z,100.00
2023-02-17T03:41:58.740Z,100.00
2023-02-17T03:44:25.083Z,100.00
2023-02-17T03:46:51.598Z,100.00
2023-02-17T03:49:17.961Z,100.00
2023-02-17T03:51:44.373Z,100.00
2023-02-17T03:54:10.741Z,100.00
2023-02-17T03:56:37.076Z,100.00
2023-02-17T03:59:03.981Z,100.00
2023-02-17T04:01:30.555Z,100.00
2023-02-17T04:03:57.012Z,100.00
2023-02-17T04:06:23.441Z,100.00
2023-02-17T04:08:49.978Z,100.00
2023-02-17T04:11:16.337Z,100.00
2023-02-17T04:13:42.710Z,100.00
2023-02-17T04:16:09.736Z,100.00
2023-02-17T04:18:36.516Z,100.00
2023-02-17T04:21:03.170Z,100.00
2023-02-17T04:23:29.577Z,100.00
2023-02-17T04:25:55.946Z,100.00
2023-02-17T04:28:22.714Z,100.00
2023-02-17T04:30:50.140Z,100.00
2023-02-17T04:33:16.749Z,100.00
2023-02-17T04:35:43.161Z,100.00
2023-02-17T04:38:10.700Z,100.00
2023-02-17T04:40:37.662Z,100.00
2023-02-17T04:43:04.207Z,100.00
2023-02-17T04:45:30.808Z,100.00
2023-02-17T04:47:57.234Z,100.00
2023-02-17T04:50:23.664Z,100.00
2023-02-17T04:52:50.024Z,100.00
2023-02-17T04:55:16.420Z,100.00
2023-02-17T04:57:42.814Z,100.00
2023-02-17T05:00:09.616Z,100.00
2023-02-17T05:02:36.098Z,100.00
2023-02-17T05:05:02.687Z,100.00
2023-02-17T05:07:29.246Z,100.00
2023-02-17T05:09:55.591Z,100.00
2023-02-17T05:12:21.973Z,100.00
2023-02-17T05:14:48.366Z,100.00
2023-02-17T05:17:14.722Z,100.00
2023-02-17T05:19:41.063Z,100.00
2023-02-17T05:22:07.607Z,100.00
2023-02-17T05:24:33.998Z,100.00
2023-02-17T05:27:00.624Z,100.00
2023-02-17T05:29:27.021Z,100.00
2023-02-17T05:31:53.434Z,100.00
2023-02-17T05:34:19.867Z,100.00
2023-02-17T05:36:46.433Z,100.00
2023-02-17T05:39:12.850Z,100.00
2023-02-17T05:41:39.216Z,100.00
2023-02-17T05:44:05.775Z,100.00
2023-02-17T05:46:32.171Z,100.00
2023-02-17T05:48:58.528Z,100.00
2023-02-17T05:51:25.075Z,100.00
2023-02-17T05:53:51.423Z,100.00
2023-02-17T05:56:17.776Z,100.00
2023-02-17T05:58:44.153Z,100.00
2023-02-17T06:01:10.946Z,100.00
2023-02-17T06:03:37.443Z,100.00
2023-02-17T06:06:05.096Z,100.00
2023-02-17T06:08:31.607Z,100.00
2023-02-17T06:10:57.940Z,100.00
2023-02-17T06:13:24.350Z,100.00
2023-02-17T06:15:50.748Z,100.00
2023-02-17T06:18:17.377Z,100.00
2023-02-17T06:20:43.946Z,100.00
2023-02-17T06:23:11.395Z,100.00
2023-02-17T06:25:37.763Z,100.00
2023-02-17T06:28:04.788Z,100.00
2023-02-17T06:30:31.202Z,100.00
2023-02-17T06:32:58.316Z,100.00
2023-02-17T06:35:24.732Z,100.00
2023-02-17T06:37:51.168Z,100.00
2023-02-17T06:40:17.889Z,100.00
2023-02-17T06:42:44.436Z,100.00
2023-02-17T06:45:10.877Z,100.00
2023-02-17T06:47:37.225Z,100.00
2023-02-17T06:50:03.979Z,100.00
2023-02-17T06:52:30.426Z,100.00
2023-02-17T06:54:56.779Z,100.00
2023-02-17T06:57:23.231Z,100.00
2023-02-17T06:59:49.586Z,100.00
2023-02-17T07:02:16.160Z,100.00
2023-02-17T07:04:42.823Z,100.00
2023-02-17T07:07:09.432Z,100.00
2023-02-17T07:09:35.978Z,100.00
2023-02-17T07:12:02.853Z,100.00
2023-02-17T07:14:29.196Z,100.00
2023-02-17T07:16:55.543Z,100.00
2023-02-17T07:19:21.936Z,100.00
2023-02-17T07:21:48.305Z,100.00
2023-02-17T07:24:14.683Z,100.00
2023-02-17T07:26:41.158Z,100.00
2023-02-17T07:29:07.623Z,100.00
2023-02-17T07:31:34.285Z,100.00
2023-02-17T07:34:03.961Z,100.00
2023-02-17T07:36:30.416Z,100.00
2023-02-17T07:38:56.855Z,100.00
2023-02-17T07:41:32.018Z,100.00
2023-02-17T07:43:58.506Z,100.00
2023-02-17T07:46:25.147Z,100.00
2023-02-17T07:48:51.549Z,100.00
2023-02-17T07:51:19.929Z,100.00
2023-02-17T07:53:46.416Z,100.00
2023-02-17T07:56:13.594Z,100.00
2023-02-17T07:58:41.123Z,100.00
2023-02-17T08:01:08.706Z,100.00
2023-02-17T08:03:35.340Z,100.00
2023-02-17T08:06:01.757Z,100.00
2023-02-17T08:08:46.933Z,100.00
2023-02-17T08:11:32.556Z,100.00
2023-02-17T08:13:59.300Z,100.00
2023-02-17T08:16:28.705Z,100.00
2023-02-17T08:18:55.536Z,100.00
2023-02-17T08:21:22.907Z,100.00
2023-02-17T08:23:49.367Z,100.00
2023-02-17T08:26:15.885Z,100.00
2023-02-17T08:28:42.572Z,100.00
2023-02-17T08:31:28.396Z,100.00
2023-02-17T08:33:55.086Z,100.00
2023-02-17T08:36:24.598Z,100.00
2023-02-17T08:38:52.205Z,100.00
2023-02-17T08:41:31.586Z,100.00
2023-02-17T08:43:59.034Z,100.00
2023-02-17T08:46:25.477Z,100.00
2023-02-17T08:48:52.151Z,100.00
2023-02-17T08:51:23.527Z,98.48
2023-02-17T08:53:50.760Z,98.12
2023-02-17T08:56:17.362Z,97.33
2023-02-17T08:58:43.880Z,96.66
2023-02-17T09:01:10.342Z,96.02
2023-02-17T09:03:37.741Z,95.00
2023-02-17T09:06:04.517Z,95.10
2023-02-17T09:08:30.953Z,94.11
2023-02-17T09:10:57.575Z,93.67
2023-02-17T09:13:23.984Z,93.00
2023-02-17T09:15:53.774Z,92.65
2023-02-17T09:18:23.170Z,91.85
2023-02-17T09:20:49.678Z,91.14
2023-02-17T09:23:16.110Z,90.71
2023-02-17T09:25:42.561Z,90.59
2023-02-17T09:28:08.939Z,90.04
2023-02-17T09:30:35.414Z,91.08
2023-02-17T09:33:02.143Z,90.04
2023-02-17T09:35:28.483Z,90.31
2023-02-17T09:37:55.505Z,90.12
2023-02-17T09:40:24.410Z,90.85
2023-02-17T09:42:50.956Z,89.61
2023-02-17T09:45:22.666Z,88.94
2023-02-17T09:47:58.231Z,89.29
2023-02-17T09:50:27.882Z,89.10
2023-02-17T09:53:01.145Z,88.46
2023-02-17T09:55:29.951Z,88.49
2023-02-17T09:57:58.675Z,88.32
2023-02-17T10:00:38.661Z,88.36
2023-02-17T10:03:10.334Z,87.56
2023-02-17T10:05:45.571Z,87.78
2023-02-17T10:08:17.455Z,87.50
2023-02-17T10:10:50.738Z,87.23
2023-02-17T10:13:17.836Z,86.86
2023-02-17T10:15:45.282Z,86.94
2023-02-17T10:18:26.511Z,86.92
2023-02-17T10:21:00.503Z,87.33
2023-02-17T10:23:27.907Z,86.64
2023-02-17T10:26:15.664Z,86.91
2023-02-17T10:28:45.208Z,87.15
2023-02-17T10:31:13.639Z,87.76
2023-02-17T10:34:03.332Z,91.54
2023-02-17T10:36:44.758Z,92.66
2023-02-17T10:39:15.032Z,93.73
2023-02-17T10:41:41.403Z,93.70
2023-02-17T10:44:17.585Z,94.00
2023-02-17T10:46:44.125Z,93.71
2023-02-17T10:49:19.616Z,94.09
2023-02-17T10:51:45.958Z,93.62
2023-02-17T10:54:22.093Z,93.55
2023-02-17T10:56:50.501Z,92.63
2023-02-17T10:59:26.038Z,92.60
2023-02-17T11:01:52.501Z,92.62
2023-02-17T11:04:18.891Z,92.73
2023-02-17T11:06:49.563Z,91.91
2023-02-17T11:09:31.988Z,91.47
2023-02-17T11:12:00.576Z,92.21
2023-02-17T11:14:29.563Z,92.52
2023-02-17T11:16:59.237Z,92.76
2023-02-17T11:19:34.044Z,93.05
2023-02-17T11:22:02.063Z,92.46
2023-02-17T11:24:35.036Z,92.25
2023-02-17T11:27:01.384Z,91.68
2023-02-17T11:29:27.999Z,91.39
2023-02-17T11:32:07.330Z,90.74
2023-02-17T11:34:36.089Z,90.72
2023-02-17T11:37:11.667Z,90.69
2023-02-17T11:39:43.227Z,90.33
2023-02-17T11:42:26.247Z,88.46
2023-02-17T11:44:54.122Z,80.81
2023-02-17T11:47:45.223Z,77.04
2023-02-17T11:50:11.600Z,73.68
2023-02-17T11:52:54.841Z,72.75
2023-02-17T11:55:46.090Z,71.42
2023-02-17T11:58:12.437Z,70.07
2023-02-17T12:00:55.909Z,67.70
2023-02-17T12:03:36.412Z,67.95
2023-02-17T12:06:29.747Z,68.91
2023-02-17T12:09:22.513Z,68.63
2023-02-17T12:12:01.689Z,75.23
2023-02-17T12:14:56.320Z,75.08
2023-02-17T12:17:47.724Z,76.13
2023-02-17T12:20:26.126Z,78.13
2023-02-17T12:23:10.747Z,79.73
2023-02-17T12:25:49.468Z,83.18
2023-02-17T12:28:37.487Z,90.82
2023-02-17T12:31:05.072Z,90.26
2023-02-17T12:33:47.808Z,89.40
2023-02-17T12:36:15.989Z,100.00
2023-02-17T12:38:51.001Z,100.00
2023-02-17T12:41:30.495Z,100.00
2023-02-17T12:43:58.714Z,100.00
2023-02-17T12:46:46.468Z,100.00
2023-02-17T12:49:21.744Z,100.00
2023-02-17T12:51:53.366Z,100.00
2023-02-17T12:54:52.576Z,100.00
2023-02-17T12:57:22.168Z,100.00
2023-02-17T12:59:50.317Z,100.00
2023-02-17T13:02:24.413Z,100.00
2023-02-17T13:04:56.126Z,100.00
2023-02-17T13:07:34.926Z,100.00
2023-02-17T13:10:01.396Z,97.37
2023-02-17T13:12:27.738Z,86.90
2023-02-17T13:14:55.588Z,85.63
2023-02-17T13:17:33.985Z,84.81
2023-02-17T13:20:09.254Z,84.65
2023-02-17T13:22:36.328Z,85.60
2023-02-17T13:25:02.759Z,84.19
2023-02-17T13:27:30.278Z,86.44
2023-02-17T13:30:06.353Z,88.63
2023-02-17T13:32:34.261Z,89.72
2023-02-17T13:35:06.426Z,89.19
2023-02-17T13:37:32.766Z,87.02
2023-02-17T13:40:00.164Z,86.15
2023-02-17T13:42:35.537Z,85.42
2023-02-17T13:45:02.727Z,84.85
2023-02-17T13:47:38.260Z,82.63
2023-02-17T13:50:05.382Z,76.46
2023-02-17T13:52:32.062Z,65.92
2023-02-17T13:55:02.730Z,57.46
2023-02-17T13:57:33.866Z,22.54
2023-02-17T14:00:10.895Z,23.11
2023-02-17T14:02:39.176Z,20.81
2023-02-17T14:05:15.057Z,21.46
2023-02-17T14:07:41.505Z,26.68
2023-02-17T14:10:33.659Z,41.81
2023-02-17T14:13:00.057Z,44.06
2023-02-17T14:15:28.118Z,45.28
2023-02-17T14:17:54.592Z,47.86
2023-02-17T14:20:28.333Z,50.20
2023-02-17T14:23:06.236Z,54.35
2023-02-17T14:25:37.926Z,57.96
2023-02-17T14:28:04.704Z,61.29
2023-02-17T14:30:38.887Z,63.20
2023-02-17T14:33:16.074Z,65.55
2023-02-17T14:36:03.013Z,70.85
2023-02-17T14:38:35.186Z,81.74
2023-02-17T14:41:02.096Z,88.70
2023-02-17T14:43:28.586Z,94.93
2023-02-17T14:45:55.017Z,100.00
2023-02-17T14:48:21.470Z,100.00
2023-02-17T14:50:48.328Z,100.00
2023-02-17T14:53:23.360Z,100.00
2023-02-17T14:55:53.426Z,100.00
2023-02-17T14:58:21.382Z,100.00
2023-02-17T15:00:48.489Z,100.00
2023-02-17T15:03:17.494Z,100.00
2023-02-17T15:05:43.910Z,100.00
2023-02-17T15:08:12.592Z,100.00
2023-02-17T15:10:39.892Z,100.00
2023-02-17T15:13:06.579Z,100.00
2023-02-17T15:15:32.948Z,100.00
2023-02-17T15:17:59.495Z,100.00
2023-02-17T15:20:25.881Z,100.00
2023-02-17T15:22:52.857Z,100.00
2023-02-17T15:25:22.255Z,100.00
2023-02-17T15:27:49.085Z,100.00
2023-02-17T15:30:17.222Z,100.00
2023-02-17T15:32:43.925Z,100.00
2023-02-17T15:35:19.864Z,100.00
2023-02-17T15:37:46.440Z,100.00
2023-02-17T15:40:15.117Z,100.00
2023-02-17T15:42:42.209Z,100.00
2023-02-17T15:45:11.632Z,100.00
2023-02-17T15:47:38.045Z,100.00
2023-02-17T15:50:04.881Z,100.00
2023-02-17T15:52:31.281Z,100.00
2023-02-17T15:54:58.956Z,100.00
2023-02-17T15:57:25.418Z,100.00
2023-02-17T15:59:54.834Z,100.00
2023-02-17T16:02:22.546Z,100.00
2023-02-17T16:04:49.408Z,100.00
2023-02-17T16:07:15.986Z,100.00
2023-02-17T16:09:42.399Z,100.00
2023-02-17T16:12:15.411Z,100.00
2023-02-17T16:14:41.791Z,100.00
2023-02-17T16:17:13.501Z,100.00
2023-02-17T16:19:40.357Z,100.00
2023-02-17T16:22:06.747Z,100.00
2023-02-17T16:24:33.112Z,100.00
2023-02-17T16:26:59.790Z,100.00
2023-02-17T16:29:26.204Z,96.65
2023-02-17T16:31:52.767Z,92.85
2023-02-17T16:34:21.508Z,90.63
2023-02-17T16:36:53.300Z,88.52
2023-02-17T16:39:22.996Z,87.52
2023-02-17T16:41:49.455Z,85.36
2023-02-17T16:44:16.916Z,83.63
2023-02-17T16:46:48.466Z,84.17
2023-02-17T16:49:31.857Z,83.80
2023-02-17T16:52:21.203Z,82.67
2023-02-17T16:54:47.572Z,82.54
2023-02-17T16:57:18.270Z,82.54
2023-02-17T16:59:45.089Z,81.93
2023-02-17T17:02:11.623Z,80.76
2023-02-17T17:04:38.050Z,78.95
2023-02-17T17:07:04.581Z,75.69
2023-02-17T17:09:30.943Z,74.84
2023-02-17T17:11:57.301Z,74.44
2023-02-17T17:14:24.618Z,74.02
2023-02-17T17:16:52.436Z,73.58
2023-02-17T17:19:18.912Z,73.43
2023-02-17T17:21:45.260Z,73.46
2023-02-17T17:24:11.634Z,73.15
2023-02-17T17:26:40.409Z,71.99
2023-02-17T17:29:13.960Z,72.53
2023-02-17T17:31:40.388Z,73.88
2023-02-17T17:34:06.830Z,74.09
2023-02-17T17:36:34.266Z,75.05
2023-02-17T17:39:01.039Z,75.50
2023-02-17T17:41:27.958Z,74.64
2023-02-17T17:43:55.537Z,72.44
2023-02-17T17:46:30.245Z,71.80
2023-02-17T17:48:58.814Z,70.07
2023-02-17T17:51:25.931Z,69.31
2023-02-17T17:53:52.378Z,69.05
2023-02-17T17:56:26.947Z,67.36
2023-02-17T17:58:53.381Z,61.68
2023-02-17T18:01:20.193Z,57.78
2023-02-17T18:03:46.661Z,59.49
2023-02-17T18:06:16.108Z,64.13
2023-02-17T18:08:43.782Z,68.13
2023-02-17T18:11:11.557Z,77.42
2023-02-17T18:13:38.558Z,100.00
2023-02-17T18:16:05.585Z,100.00
2023-02-17T18:18:32.154Z,100.00
2023-02-17T18:20:58.534Z,100.00
2023-02-17T18:23:24.914Z,100.00
2023-02-17T18:25:51.296Z,100.00
2023-02-17T18:28:17.773Z,100.00
2023-02-17T18:30:44.197Z,100.00
2023-02-17T18:33:10.675Z,100.00
2023-02-17T18:35:37.163Z,100.00
2023-02-17T18:38:03.530Z,100.00
2023-02-17T18:40:30.064Z,100.00
2023-02-17T18:42:56.436Z,100.00
2023-02-17T18:45:23.476Z,100.00
2023-02-17T18:47:49.844Z,100.00
2023-02-17T18:50:16.321Z,100.00
2023-02-17T18:52:43.059Z,100.00
2023-02-17T18:55:10.002Z,100.00
2023-02-17T18:57:36.511Z,100.00
2023-02-17T19:00:04.523Z,100.00
2023-02-17T19:02:30.927Z,100.00
2023-02-17T19:04:57.326Z,100.00
2023-02-17T19:07:23.737Z,100.00
2023-02-17T19:09:51.625Z,100.00
2023-02-17T19:12:18.129Z,94.87
2023-02-17T19:14:44.481Z,91.41
2023-02-17T19:17:11.222Z,87.48
2023-02-17T19:19:38.784Z,85.36
2023-02-17T19:22:08.177Z,85.42
2023-02-17T19:24:38.805Z,81.75
2023-02-17T19:27:05.476Z,79.94
2023-02-17T19:29:31.857Z,81.13
2023-02-17T19:31:58.865Z,79.88
2023-02-17T19:34:25.584Z,79.93
2023-02-17T19:36:51.950Z,77.57
2023-02-17T19:39:18.362Z,76.39
2023-02-17T19:41:44.798Z,74.14
2023-02-17T19:44:11.411Z,72.07
2023-02-17T19:46:38.091Z,67.97
2023-02-17T19:49:04.674Z,56.19
2023-02-17T19:51:31.748Z,43.48
2023-02-17T19:53:58.620Z,41.35
2023-02-17T19:56:27.302Z,59.14
2023-02-17T19:58:53.888Z,68.99
2023-02-17T20:01:22.045Z,67.60
2023-02-17T20:03:48.711Z,80.16
2023-02-17T20:06:17.346Z,83.90
2023-02-17T20:08:44.631Z,83.26
2023-02-17T20:11:11.157Z,85.04
2023-02-17T20:13:45.799Z,81.10
2023-02-17T20:16:13.843Z,72.78
2023-02-17T20:18:41.736Z,66.50
2023-02-17T20:21:09.209Z,58.99
2023-02-17T20:23:35.854Z,49.65
2023-02-17T20:26:10.464Z,50.22
2023-02-17T20:28:37.105Z,48.77
2023-02-17T20:31:04.182Z,50.70
2023-02-17T20:33:30.667Z,72.37
2023-02-17T20:35:58.106Z,79.55
2023-02-17T20:38:24.807Z,76.43
2023-02-17T20:40:51.198Z,78.59
2023-02-17T20:43:17.709Z,81.79
2023-02-17T20:45:44.431Z,87.27
2023-02-17T20:48:10.840Z,100.00
2023-02-17T20:50:37.317Z,100.00
2023-02-17T20:53:03.720Z,100.00
2023-02-17T20:55:30.096Z,100.00
2023-02-17T20:57:56.462Z,100.00
2023-02-17T21:00:24.078Z,100.00
2023-02-17T21:02:52.317Z,100.00
2023-02-17T21:05:22.410Z,100.00
2023-02-17T21:07:48.807Z,100.00
2023-02-17T21:10:17.496Z,100.00
2023-02-17T21:12:43.932Z,100.00
2023-02-17T21:15:10.640Z,100.00
2023-02-17T21:17:37.028Z,100.00
2023-02-17T21:20:05.219Z,100.00
2023-02-17T21:22:31.771Z,100.00
2023-02-17T21:24:58.175Z,100.00
2023-02-17T21:27:24.572Z,100.00
2023-02-17T21:29:50.925Z,100.00
2023-02-17T21:32:17.439Z,100.00
2023-02-17T21:34:43.836Z,100.00
2023-02-17T21:37:10.247Z,100.00
2023-02-17T21:39:36.680Z,100.00
2023-02-17T21:42:03.258Z,100.00
2023-02-17T21:44:48.304Z,100.00
2023-02-17T21:47:14.762Z,100.00
2023-02-17T21:49:41.222Z,100.00
2023-02-17T21:52:07.946Z,100.00
2023-02-17T21:54:34.310Z,100.00
2023-02-17T21:57:01.277Z,100.00
2023-02-17T21:59:28.693Z,100.00
2023-02-17T22:01:55.068Z,100.00
2023-02-17T22:04:21.603Z,100.00
2023-02-17T22:06:48.034Z,100.00
2023-02-17T22:09:17.801Z,100.00
2023-02-17T22:11:44.596Z,100.00
2023-02-17T22:14:15.863Z,100.00
2023-02-17T22:16:42.296Z,100.00
2023-02-17T22:19:10.676Z,100.00
2023-02-17T22:21:37.179Z,100.00
2023-02-17T22:24:03.711Z,100.00
2023-02-17T22:26:30.200Z,100.00
2023-02-17T22:28:56.705Z,100.00
2023-02-17T22:31:24.970Z,100.00
2023-02-17T22:33:51.414Z,100.00
2023-02-17T22:36:19.871Z,100.00
2023-02-17T22:38:46.258Z,100.00
2023-02-17T22:41:14.565Z,100.00
2023-02-17T22:43:41.439Z,100.00
2023-02-17T22:46:08.499Z,100.00
2023-02-17T22:48:36.015Z,100.00
2023-02-17T22:51:10.363Z,100.00
2023-02-17T22:53:36.922Z,100.00
2023-02-17T22:56:03.779Z,100.00
2023-02-17T22:58:30.135Z,100.00
2023-02-17T23:01:08.529Z,100.00
2023-02-17T23:03:34.994Z,100.00
2023-02-17T23:06:03.145Z,100.00
2023-02-17T23:08:29.550Z,100.00
2023-02-17T23:10:56.093Z,100.00
2023-02-17T23:13:22.478Z,100.00
2023-02-17T23:15:48.930Z,100.00
2023-02-17T23:18:17.643Z,100.00
2023-02-17T23:20:46.758Z,100.00
2023-02-17T23:23:14.216Z,100.00
2023-02-17T23:25:41.600Z,100.00
2023-02-17T23:28:07.990Z,100.00
2023-02-17T23:30:34.401Z,100.00
2023-02-17T23:33:00.793Z,100.00
2023-02-17T23:35:27.170Z,100.00
2023-02-17T23:37:53.700Z,100.00
2023-02-17T23:40:20.233Z,100.00
2023-02-17T23:42:46.676Z,100.00
2023-02-17T23:45:13.027Z,100.00
2023-02-17T23:47:39.575Z,100.00
2023-02-17T23:50:06.618Z,100.00
2023-02-17T23:52:34.040Z,100.00
2023-02-17T23:55:00.425Z,100.00
2023-02-17T23:57:27.645Z,100.00
2023-02-17T23:59:54.047Z,100.00
